Time;durP1;ratioP1;P1;durP2;ratioP2;P2;SDS_P1;SDS_P2;PMS_P1;PMS_P2;Temp;Humidity;BMP_temperature;BMP_pressure;BME280_temperature;BME280_humidity;BME280_pressure;Samples;Min_cycle;Max_cycle;Signal;HPM_P1;HPM_P2
2021/08/30 00:00:18;;;;;;;;;3.00;3.00;;;;;;;;5084309;28;46952;-78
2021/08/30 00:02:43;;;;;;;;;3.25;3.00;;;;;;;;5084401;28;47281;-78
2021/08/30 00:05:09;;;;;;;;;2.00;2.00;;;;;;;;5084485;28;47086;-78
2021/08/30 00:07:34;;;;;;;;;3.50;2.00;;;;;;;;5084436;28;46946;-77
2021/08/30 00:10:00;;;;;;;;;3.75;3.00;;;;;;;;5084861;28;46893;-77
2021/08/30 00:12:25;;;;;;;;;3.50;1.25;;;;;;;;5065762;28;47065;-77
2021/08/30 00:14:51;;;;;;;;;5.00;3.00;;;;;;;;5084410;28;47005;-77
2021/08/30 00:17:16;;;;;;;;;4.75;2.75;;;;;;;;5084209;28;46981;-78
2021/08/30 00:19:41;;;;;;;;;3.00;3.00;;;;;;;;5066250;28;46886;-77
2021/08/30 00:22:06;;;;;;;;;3.25;2.00;;;;;;;;5084151;28;48403;-77
2021/08/30 00:24:32;;;;;;;;;4.50;2.50;;;;;;;;5084276;28;46896;-77
2021/08/30 00:26:58;;;;;;;;;4.75;3.00;;;;;;;;5071085;28;46897;-77
2021/08/30 00:29:27;;;;;;;;;2.75;2.75;;;;;;;;5084075;28;46799;-78
2021/08/30 00:31:55;;;;;;;;;2.00;2.00;;;;;;;;5084148;28;46895;-78
2021/08/30 00:34:20;;;;;;;;;4.00;2.50;;;;;;;;5084120;28;46962;-77
2021/08/30 00:36:46;;;;;;;;;6.00;4.00;;;;;;;;5084372;28;46983;-78
2021/08/30 00:39:11;;;;;;;;;3.00;3.00;;;;;;;;5084448;28;46730;-77
2021/08/30 00:41:37;;;;;;;;;4.00;3.00;;;;;;;;5084173;28;46900;-78
2021/08/30 00:44:02;;;;;;;;;7.00;4.00;;;;;;;;5083847;28;46761;-77
2021/08/30 00:46:28;;;;;;;;;5.75;4.00;;;;;;;;5084182;28;46955;-77
2021/08/30 00:48:53;;;;;;;;;5.50;5.25;;;;;;;;5080376;28;46775;-77
2021/08/30 00:51:20;;;;;;;;;7.00;5.50;;;;;;;;5080556;28;46883;-77
2021/08/30 00:53:46;;;;;;;;;7.50;4.75;;;;;;;;5080543;28;47129;-77
2021/08/30 00:56:11;;;;;;;;;5.75;5.75;;;;;;;;5080428;28;46814;-77
2021/08/30 00:58:41;;;;;;;;;10.00;6.00;;;;;;;;5080435;28;47007;-77
2021/08/30 01:01:06;;;;;;;;;6.75;6.25;;;;;;;;5080361;28;48156;-77
2021/08/30 01:03:32;;;;;;;;;7.25;5.25;;;;;;;;5080505;28;46861;-77
2021/08/30 01:06:02;;;;;;;;;6.50;5.00;;;;;;;;5080474;28;46813;-77
2021/08/30 01:08:30;;;;;;;;;8.00;7.00;;;;;;;;5080649;28;46872;-77
2021/08/30 01:11:09;;;;;;;;;9.50;7.50;;;;;;;;5080386;28;47724;-77
2021/08/30 01:13:46;;;;;;;;;6.25;6.25;;;;;;;;5062041;28;47816;-77
2021/08/30 01:16:12;;;;;;;;;6.25;5.00;;;;;;;;5080093;28;47050;-77
2021/08/30 01:18:38;;;;;;;;;9.50;6.00;;;;;;;;5080342;28;46907;-77
2021/08/30 01:21:06;;;;;;;;;7.00;7.00;;;;;;;;5080115;28;47152;-77
2021/08/30 01:23:35;;;;;;;;;7.25;6.50;;;;;;;;5080284;28;46821;-77
2021/08/30 01:26:02;;;;;;;;;10.75;8.25;;;;;;;;5073290;28;46805;-78
2021/08/30 01:28:32;;;;;;;;;11.00;7.00;;;;;;;;5074076;28;47042;-77
2021/08/30 01:30:58;;;;;;;;;8.25;7.25;;;;;;;;5079880;28;47039;-77
2021/08/30 01:33:24;;;;;;;;;9.00;9.00;;;;;;;;5080018;28;46881;-77
2021/08/30 01:35:50;;;;;;;;;10.25;9.25;;;;;;;;5080277;28;46895;-77
2021/08/30 01:38:15;;;;;;;;;9.25;8.75;;;;;;;;5080061;28;47249;-77
2021/08/30 01:40:41;;;;;;;;;9.50;8.25;;;;;;;;5079990;28;46841;-77
2021/08/30 01:43:07;;;;;;;;;14.75;8.75;;;;;;;;5079874;28;47001;-77
2021/08/30 01:45:33;;;;;;;;;12.00;9.50;;;;;;;;5079712;28;46926;-77
2021/08/30 01:48:01;;;;;;;;;12.25;10.25;;;;;;;;5080078;28;46909;-78
2021/08/30 01:50:27;;;;;;;;;10.50;9.00;;;;;;;;5079821;28;47777;-77
2021/08/30 01:52:53;;;;;;;;;14.75;10.00;;;;;;;;5079722;28;46856;-77
2021/08/30 01:55:39;;;;;;;;;13.00;10.00;;;;;;;;5079751;28;46994;-77
2021/08/30 02:00:43;;;;;;;;;9.75;8.25;;;;;;;;5078767;28;47497;-77
2021/08/30 02:03:14;;;;;;;;;14.25;9.50;;;;;;;;5079439;28;46947;-77
2021/08/30 02:05:40;;;;;;;;;10.00;7.75;;;;;;;;5079727;28;46883;-77
2021/08/30 02:08:05;;;;;;;;;11.25;11.00;;;;;;;;5079564;28;46758;-77
2021/08/30 02:10:30;;;;;;;;;16.00;10.00;;;;;;;;5079411;28;46800;-77
2021/08/30 02:12:56;;;;;;;;;11.25;10.00;;;;;;;;5079258;28;46762;-77
2021/08/30 02:15:22;;;;;;;;;10.50;8.75;;;;;;;;5079299;28;47089;-77
2021/08/30 02:17:49;;;;;;;;;6.50;6.00;;;;;;;;5061071;28;46914;-77
2021/08/30 02:20:18;;;;;;;;;11.00;8.00;;;;;;;;5079159;28;46944;-77
2021/08/30 02:22:44;;;;;;;;;12.75;8.50;;;;;;;;5079064;28;47132;-77
2021/08/30 02:25:15;;;;;;;;;7.75;7.75;;;;;;;;5060920;28;46951;-77
2021/08/30 02:28:11;;;;;;;;;10.00;8.00;;;;;;;;5079281;28;46989;-77
2021/08/30 02:30:37;;;;;;;;;8.75;8.00;;;;;;;;5050069;28;47953;-77
2021/08/30 02:33:04;;;;;;;;;12.00;8.25;;;;;;;;5060817;28;46892;-77
2021/08/30 02:35:31;;;;;;;;;8.00;8.00;;;;;;;;5079100;28;46925;-77
2021/08/30 02:37:56;;;;;;;;;7.50;6.25;;;;;;;;5079530;28;47095;-77
2021/08/30 02:40:23;;;;;;;;;7.25;7.25;;;;;;;;5078885;28;46979;-77
2021/08/30 02:42:50;;;;;;;;;10.50;7.50;;;;;;;;5079012;28;47018;-77
2021/08/30 02:45:16;;;;;;;;;11.25;8.25;;;;;;;;5078842;28;47055;-78
2021/08/30 02:47:41;;;;;;;;;9.00;7.25;;;;;;;;5079054;28;47221;-77
2021/08/30 02:50:08;;;;;;;;;10.50;8.00;;;;;;;;5078757;28;47086;-77
2021/08/30 02:52:34;;;;;;;;;8.25;8.25;;;;;;;;5078852;28;46981;-77
2021/08/30 02:55:00;;;;;;;;;11.25;10.00;;;;;;;;5078846;28;46901;-77
2021/08/30 02:57:26;;;;;;;;;9.25;7.75;;;;;;;;5060695;28;46745;-77
2021/08/30 02:59:52;;;;;;;;;9.25;8.00;;;;;;;;5078170;28;47210;-77
2021/08/30 03:02:18;;;;;;;;;9.75;8.00;;;;;;;;5060442;28;47499;-77
2021/08/30 03:04:44;;;;;;;;;11.25;9.00;;;;;;;;5078603;28;47045;-77
2021/08/30 03:07:10;;;;;;;;;10.75;9.50;;;;;;;;5078913;28;46943;-77
2021/08/30 03:09:35;;;;;;;;;8.25;6.50;;;;;;;;5078456;28;46966;-77
2021/08/30 03:12:01;;;;;;;;;11.25;9.50;;;;;;;;5059289;28;46960;-77
2021/08/30 03:14:28;;;;;;;;;8.00;7.00;;;;;;;;5059756;28;46817;-77
2021/08/30 03:16:56;;;;;;;;;9.00;8.00;;;;;;;;5078611;28;47165;-77
2021/08/30 03:19:23;;;;;;;;;12.00;9.75;;;;;;;;5078386;28;47952;-77
2021/08/30 03:21:49;;;;;;;;;10.50;9.00;;;;;;;;5078391;28;47178;-77
2021/08/30 03:24:15;;;;;;;;;11.50;7.25;;;;;;;;5078362;28;46955;-77
2021/08/30 03:26:41;;;;;;;;;13.25;7.25;;;;;;;;5066147;28;46868;-77
2021/08/30 03:29:07;;;;;;;;;8.00;6.75;;;;;;;;5077165;28;48205;-77
2021/08/30 03:31:34;;;;;;;;;10.25;9.00;;;;;;;;5078248;28;47108;-77
2021/08/30 03:34:00;;;;;;;;;9.00;8.00;;;;;;;;5078176;28;47141;-77
2021/08/30 03:36:27;;;;;;;;;11.50;10.00;;;;;;;;5078640;28;46778;-77
2021/08/30 03:38:52;;;;;;;;;9.50;9.00;;;;;;;;5078076;28;47873;-77
2021/08/30 03:41:19;;;;;;;;;9.25;9.25;;;;;;;;5078161;28;47072;-77
2021/08/30 03:43:45;;;;;;;;;12.00;9.50;;;;;;;;5077994;28;46864;-77
2021/08/30 03:46:12;;;;;;;;;13.50;8.75;;;;;;;;5078041;28;47202;-77
2021/08/30 03:48:37;;;;;;;;;8.00;8.00;;;;;;;;5077945;28;48129;-77
2021/08/30 03:51:04;;;;;;;;;8.00;8.00;;;;;;;;5078082;28;46738;-77
2021/08/30 03:53:30;;;;;;;;;11.00;10.75;;;;;;;;5053215;28;46813;-77
2021/08/30 03:55:56;;;;;;;;;11.75;8.75;;;;;;;;5071290;28;47210;-77
2021/08/30 03:58:22;;;;;;;;;12.50;10.00;;;;;;;;5077439;28;47066;-77
2021/08/30 04:00:47;;;;;;;;;8.75;8.75;;;;;;;;5077741;28;46905;-77
2021/08/30 04:03:13;;;;;;;;;13.75;8.50;;;;;;;;5077919;28;46872;-77
2021/08/30 04:05:41;;;;;;;;;10.00;9.75;;;;;;;;5078215;28;46892;-77
2021/08/30 04:08:08;;;;;;;;;11.25;8.00;;;;;;;;5077797;28;47911;-77
2021/08/30 04:10:34;;;;;;;;;10.25;8.75;;;;;;;;5059579;28;47127;-77
2021/08/30 04:13:00;;;;;;;;;12.25;11.25;;;;;;;;5077943;28;47332;-77
2021/08/30 04:15:25;;;;;;;;;10.75;10.50;;;;;;;;5077866;28;46833;-77
2021/08/30 04:17:50;;;;;;;;;12.25;11.00;;;;;;;;5077574;28;46833;-77
2021/08/30 04:20:16;;;;;;;;;15.50;12.25;;;;;;;;5077521;28;46975;-77
2021/08/30 04:22:41;;;;;;;;;13.75;11.00;;;;;;;;5079122;28;46940;-77
2021/08/30 04:25:06;;;;;;;;;12.25;11.75;;;;;;;;5063191;28;46790;-77
2021/08/30 04:27:32;;;;;;;;;12.00;11.00;;;;;;;;5067913;28;47088;-77
2021/08/30 04:29:58;;;;;;;;;13.75;12.25;;;;;;;;5080802;28;46980;-77
2021/08/30 04:32:23;;;;;;;;;16.00;12.00;;;;;;;;5080923;28;46961;-77
2021/08/30 04:34:48;;;;;;;;;13.50;11.50;;;;;;;;5081172;28;46884;-77
2021/08/30 04:37:14;;;;;;;;;14.25;10.50;;;;;;;;5080904;28;46972;-77
2021/08/30 04:39:39;;;;;;;;;11.25;10.75;;;;;;;;5080831;28;47019;-77
2021/08/30 04:42:05;;;;;;;;;14.00;12.75;;;;;;;;5062552;28;47007;-77
2021/08/30 04:44:31;;;;;;;;;11.75;9.50;;;;;;;;5080732;28;46928;-77
2021/08/30 04:46:56;;;;;;;;;15.25;14.00;;;;;;;;5062457;28;48580;-77
2021/08/30 04:49:21;;;;;;;;;13.50;13.00;;;;;;;;5080853;28;46972;-77
2021/08/30 04:51:46;;;;;;;;;13.50;13.50;;;;;;;;5080918;28;47167;-78
2021/08/30 04:54:12;;;;;;;;;16.50;13.50;;;;;;;;5081017;28;46812;-78
2021/08/30 04:56:37;;;;;;;;;16.00;13.25;;;;;;;;5062122;28;49154;-79
2021/08/30 04:59:02;;;;;;;;;19.25;14.00;;;;;;;;5079880;28;47038;-79
2021/08/30 05:01:28;;;;;;;;;17.00;14.50;;;;;;;;5080269;28;47094;-79
2021/08/30 05:03:53;;;;;;;;;19.25;14.25;;;;;;;;5080800;28;46943;-79
2021/08/30 05:06:19;;;;;;;;;15.50;12.50;;;;;;;;5080239;28;47036;-79
2021/08/30 05:08:44;;;;;;;;;19.25;15.50;;;;;;;;5062156;28;46922;-79
2021/08/30 05:11:09;;;;;;;;;18.00;14.75;;;;;;;;5080275;28;46932;-79
2021/08/30 05:13:34;;;;;;;;;16.00;15.00;;;;;;;;5080508;28;47106;-79
2021/08/30 05:16:00;;;;;;;;;15.00;13.75;;;;;;;;5079848;28;46871;-79
2021/08/30 05:18:25;;;;;;;;;15.50;13.50;;;;;;;;5080067;28;46873;-79
2021/08/30 05:20:52;;;;;;;;;18.75;16.00;;;;;;;;5079948;28;46930;-79
2021/08/30 05:23:17;;;;;;;;;20.50;16.25;;;;;;;;5080435;28;46988;-79
2021/08/30 05:25:43;;;;;;;;;20.75;18.00;;;;;;;;5075267;28;47048;-79
2021/08/30 05:28:09;;;;;;;;;21.25;19.00;;;;;;;;5052459;28;46986;-79
2021/08/30 05:30:35;;;;;;;;;18.25;17.00;;;;;;;;5079538;28;47141;-79
2021/08/30 05:33:00;;;;;;;;;20.50;17.75;;;;;;;;5079984;28;46993;-79
2021/08/30 05:35:25;;;;;;;;;23.00;20.00;;;;;;;;5078767;28;47859;-79
2021/08/30 05:37:50;;;;;;;;;22.50;16.50;;;;;;;;5079879;28;46909;-79
2021/08/30 05:40:16;;;;;;;;;24.00;21.75;;;;;;;;5079711;28;47066;-79
2021/08/30 05:42:41;;;;;;;;;20.75;17.25;;;;;;;;5079799;28;47296;-79
2021/08/30 05:45:07;;;;;;;;;23.75;19.75;;;;;;;;5061276;28;48495;-79
2021/08/30 05:47:32;;;;;;;;;24.00;17.50;;;;;;;;5080102;28;46824;-79
2021/08/30 05:49:57;;;;;;;;;21.25;18.75;;;;;;;;5079601;28;47092;-79
2021/08/30 05:52:24;;;;;;;;;24.50;20.75;;;;;;;;5061561;28;46762;-79
2021/08/30 05:54:50;;;;;;;;;24.00;21.50;;;;;;;;5079497;28;47214;-79
2021/08/30 05:57:15;;;;;;;;;27.50;21.50;;;;;;;;5079464;28;46808;-79
2021/08/30 05:59:40;;;;;;;;;25.25;24.00;;;;;;;;5079187;28;46984;-79
2021/08/30 06:02:06;;;;;;;;;22.25;20.00;;;;;;;;5079727;28;46703;-79
2021/08/30 06:04:32;;;;;;;;;21.50;19.50;;;;;;;;5079209;28;47044;-79
2021/08/30 06:06:57;;;;;;;;;27.75;23.50;;;;;;;;5079436;28;47097;-79
2021/08/30 06:09:22;;;;;;;;;24.50;21.75;;;;;;;;5061041;28;46868;-79
2021/08/30 06:11:50;;;;;;;;;24.75;22.75;;;;;;;;5079640;28;46922;-79
2021/08/30 06:14:15;;;;;;;;;26.50;26.50;;;;;;;;5078752;28;47146;-79
2021/08/30 06:16:41;;;;;;;;;0.00;0.00;;;;;;;;5061169;28;46998;-79
2021/08/30 06:19:06;;;;;;;;;0.00;0.00;;;;;;;;5079150;28;46919;-79
2021/08/30 06:21:31;;;;;;;;;0.00;0.00;;;;;;;;5079672;28;46942;-79
2021/08/30 06:23:57;;;;;;;;;26.75;21.75;;;;;;;;5078890;28;46985;-79
2021/08/30 06:26:22;;;;;;;;;28.50;24.50;;;;;;;;5069158;28;46967;-79
2021/08/30 06:28:47;;;;;;;;;26.25;21.00;;;;;;;;5075202;28;46797;-79
2021/08/30 06:31:13;;;;;;;;;27.75;24.75;;;;;;;;5079348;28;46785;-79
2021/08/30 06:33:38;;;;;;;;;30.75;25.25;;;;;;;;5078779;28;48043;-79
2021/08/30 06:36:03;;;;;;;;;24.50;22.75;;;;;;;;5079033;28;46896;-79
2021/08/30 06:38:29;;;;;;;;;27.00;22.50;;;;;;;;5078890;28;47129;-79
2021/08/30 06:40:54;;;;;;;;;30.25;24.25;;;;;;;;5060581;28;46857;-79
2021/08/30 06:43:19;;;;;;;;;27.25;24.25;;;;;;;;5060252;28;47005;-78
2021/08/30 06:45:45;;;;;;;;;26.50;24.00;;;;;;;;5077498;28;47131;-78
2021/08/30 06:48:10;;;;;;;;;29.75;24.75;;;;;;;;5078582;28;47247;-78
2021/08/30 06:50:35;;;;;;;;;27.75;22.00;;;;;;;;5079070;28;46764;-79
2021/08/30 06:53:01;;;;;;;;;26.75;24.00;;;;;;;;5078518;28;46928;-79
2021/08/30 06:55:26;;;;;;;;;25.75;24.00;;;;;;;;5078773;28;46929;-79
2021/08/30 06:57:51;;;;;;;;;29.00;27.00;;;;;;;;5078231;28;47255;-79
2021/08/30 07:00:18;;;;;;;;;22.75;22.75;;;;;;;;5078406;28;47073;-79
2021/08/30 07:02:43;;;;;;;;;28.75;25.00;;;;;;;;5078472;28;47880;-79
2021/08/30 07:05:09;;;;;;;;;25.00;23.50;;;;;;;;5060135;28;47124;-79
2021/08/30 07:07:34;;;;;;;;;25.50;21.50;;;;;;;;5078445;28;46938;-79
2021/08/30 07:09:59;;;;;;;;;28.00;27.00;;;;;;;;5078716;28;46888;-78
2021/08/30 07:12:25;;;;;;;;;25.00;20.75;;;;;;;;5078229;28;46912;-78
2021/08/30 07:14:50;;;;;;;;;26.75;24.75;;;;;;;;5078302;28;47065;-79
2021/08/30 07:17:15;;;;;;;;;18.75;16.25;;;;;;;;5078362;28;46958;-78
2021/08/30 07:19:41;;;;;;;;;24.25;22.00;;;;;;;;5078836;28;47268;-78
2021/08/30 07:22:06;;;;;;;;;25.25;21.00;;;;;;;;5078212;28;47028;-79
2021/08/30 07:24:31;;;;;;;;;25.50;23.25;;;;;;;;5078576;28;47089;-78
2021/08/30 07:26:57;;;;;;;;;21.75;19.50;;;;;;;;5065691;28;47235;-79
2021/08/30 07:29:22;;;;;;;;;20.50;19.50;;;;;;;;5078273;28;46873;-79
2021/08/30 07:31:48;;;;;;;;;26.00;23.50;;;;;;;;5078085;28;47921;-78
2021/08/30 07:34:13;;;;;;;;;26.25;23.00;;;;;;;;5078241;28;46824;-78
2021/08/30 07:36:38;;;;;;;;;27.25;23.75;;;;;;;;5078249;28;46892;-78
2021/08/30 07:39:04;;;;;;;;;24.00;19.25;;;;;;;;5078518;28;46706;-78
2021/08/30 07:41:30;;;;;;;;;18.75;15.25;;;;;;;;5078020;28;47731;-79
2021/08/30 07:43:57;;;;;;;;;18.00;15.25;;;;;;;;5077840;28;46785;-78
2021/08/30 07:46:23;;;;;;;;;22.50;17.25;;;;;;;;5078216;28;46928;-78
2021/08/30 07:48:48;;;;;;;;;18.75;16.50;;;;;;;;5078509;28;47097;-78
2021/08/30 07:51:14;;;;;;;;;16.50;16.25;;;;;;;;5077946;28;47669;-78
2021/08/30 07:53:40;;;;;;;;;20.00;16.50;;;;;;;;5078124;28;46852;-79
2021/08/30 07:56:06;;;;;;;;;15.75;14.50;;;;;;;;5077926;28;47278;-78
2021/08/30 07:58:31;;;;;;;;;23.00;19.00;;;;;;;;5080571;28;47166;-79
2021/08/30 08:00:57;;;;;;;;;22.50;17.50;;;;;;;;5081019;28;47103;-78
2021/08/30 08:03:22;;;;;;;;;18.00;14.75;;;;;;;;5081672;28;46876;-79
2021/08/30 08:05:47;;;;;;;;;19.25;15.50;;;;;;;;5081686;28;46816;-79
2021/08/30 08:08:13;;;;;;;;;18.00;15.50;;;;;;;;5081859;28;46826;-78
2021/08/30 08:10:38;;;;;;;;;16.25;14.75;;;;;;;;5081538;28;47935;-79
2021/08/30 08:13:03;;;;;;;;;15.75;14.50;;;;;;;;5062968;28;46907;-79
2021/08/30 08:15:29;;;;;;;;;18.00;14.50;;;;;;;;5081114;28;46844;-79
2021/08/30 08:17:54;;;;;;;;;22.00;16.25;;;;;;;;5081486;28;46882;-79
2021/08/30 08:20:19;;;;;;;;;16.00;12.75;;;;;;;;5081045;28;47448;-79
2021/08/30 08:22:45;;;;;;;;;16.75;15.25;;;;;;;;5062671;28;46905;-79
2021/08/30 08:25:11;;;;;;;;;15.25;13.75;;;;;;;;5081267;28;46899;-78
2021/08/30 08:27:37;;;;;;;;;18.50;15.25;;;;;;;;5080961;28;47377;-79
2021/08/30 08:30:03;;;;;;;;;11.25;11.25;;;;;;;;5080701;28;48132;-79
2021/08/30 08:32:28;;;;;;;;;16.00;14.00;;;;;;;;5081368;28;46974;-78
2021/08/30 08:34:53;;;;;;;;;13.50;13.50;;;;;;;;5081127;28;46954;-79
2021/08/30 08:37:19;;;;;;;;;14.50;11.00;;;;;;;;5062905;28;47227;-79
2021/08/30 08:39:44;;;;;;;;;14.50;13.00;;;;;;;;5080906;28;46911;-79
2021/08/30 08:42:10;;;;;;;;;14.25;12.25;;;;;;;;5080743;28;46983;-79
2021/08/30 08:44:36;;;;;;;;;12.25;12.25;;;;;;;;5080685;28;47045;-79
2021/08/30 08:47:01;;;;;;;;;13.50;12.75;;;;;;;;5080892;28;46923;-79
2021/08/30 08:49:26;;;;;;;;;14.25;12.50;;;;;;;;5080902;28;48072;-79
2021/08/30 08:51:52;;;;;;;;;13.00;11.00;;;;;;;;5080667;28;46947;-79
2021/08/30 08:54:17;;;;;;;;;15.25;12.50;;;;;;;;5080946;28;46970;-79
2021/08/30 08:56:43;;;;;;;;;18.75;13.25;;;;;;;;5080598;28;47201;-79
2021/08/30 08:59:08;;;;;;;;;15.00;14.00;;;;;;;;5080120;28;48161;-79
2021/08/30 09:01:37;;;;;;;;;15.25;13.50;;;;;;;;5080482;28;46902;-79
2021/08/30 09:04:03;;;;;;;;;13.50;10.25;;;;;;;;5080788;28;46984;-79
2021/08/30 09:06:38;;;;;;;;;14.00;10.00;;;;;;;;5080822;28;47274;-78
2021/08/30 09:09:06;;;;;;;;;12.00;11.25;;;;;;;;5079215;28;47788;-78
2021/08/30 09:11:33;;;;;;;;;13.00;10.00;;;;;;;;5080774;28;47120;-78
2021/08/30 09:13:59;;;;;;;;;13.50;11.50;;;;;;;;5080056;28;46797;-78
2021/08/30 09:16:25;;;;;;;;;14.75;12.50;;;;;;;;5080790;28;46846;-78
2021/08/30 09:19:01;;;;;;;;;12.25;12.00;;;;;;;;5080046;28;47043;-79
2021/08/30 09:21:26;;;;;;;;;17.00;13.00;;;;;;;;5062014;28;47119;-78
2021/08/30 09:23:52;;;;;;;;;11.75;11.50;;;;;;;;5080471;28;47082;-78
2021/08/30 09:26:19;;;;;;;;;13.00;12.75;;;;;;;;5080206;28;47170;-78
2021/08/30 09:28:53;;;;;;;;;13.00;10.00;;;;;;;;5079801;28;47038;-78
2021/08/30 09:31:18;;;;;;;;;11.00;10.00;;;;;;;;5080253;28;47102;-78
2021/08/30 09:33:52;;;;;;;;;13.50;11.50;;;;;;;;5080180;28;46919;-78
2021/08/30 09:36:17;;;;;;;;;11.50;11.00;;;;;;;;5080434;28;46931;-78
2021/08/30 09:38:43;;;;;;;;;13.75;13.25;;;;;;;;5079930;28;48063;-78
2021/08/30 09:41:09;;;;;;;;;13.00;11.50;;;;;;;;5079980;28;46956;-78
2021/08/30 09:43:34;;;;;;;;;13.00;11.50;;;;;;;;5079524;28;46974;-78
2021/08/30 09:46:04;;;;;;;;;12.75;10.50;;;;;;;;5080276;28;46904;-78
2021/08/30 09:48:30;;;;;;;;;14.50;10.25;;;;;;;;5079911;28;48031;-78
2021/08/30 09:51:00;;;;;;;;;12.75;11.50;;;;;;;;5061762;28;46990;-78
2021/08/30 09:53:25;;;;;;;;;13.00;10.75;;;;;;;;5079993;28;47128;-78
2021/08/30 09:55:51;;;;;;;;;12.50;11.50;;;;;;;;5080167;28;47107;-78
2021/08/30 09:58:17;;;;;;;;;14.75;11.50;;;;;;;;5079537;28;47828;-78
2021/08/30 10:00:44;;;;;;;;;12.50;9.75;;;;;;;;5061134;28;46768;-77
2021/08/30 10:03:10;;;;;;;;;10.75;9.25;;;;;;;;5079546;28;46781;-78
2021/08/30 10:05:37;;;;;;;;;12.50;12.50;;;;;;;;5061747;28;47146;-78
2021/08/30 10:08:03;;;;;;;;;16.75;13.00;;;;;;;;5079361;28;47975;-78
2021/08/30 10:10:28;;;;;;;;;12.25;10.00;;;;;;;;5079658;28;46940;-78
2021/08/30 10:12:55;;;;;;;;;10.00;8.50;;;;;;;;5079398;28;46920;-78
2021/08/30 10:15:21;;;;;;;;;12.00;11.00;;;;;;;;5079489;28;46979;-78
2021/08/30 10:17:47;;;;;;;;;12.00;11.50;;;;;;;;5079444;28;48011;-78
2021/08/30 10:20:23;;;;;;;;;10.75;10.00;;;;;;;;5078956;28;46927;-78
2021/08/30 10:22:56;;;;;;;;;12.50;9.25;;;;;;;;5066865;28;46743;-78
2021/08/30 10:25:21;;;;;;;;;10.50;10.50;;;;;;;;5078118;28;47137;-78
2021/08/30 10:27:58;;;;;;;;;10.50;9.00;;;;;;;;5067300;28;46940;-78
2021/08/30 10:30:23;;;;;;;;;14.50;10.75;;;;;;;;5078973;28;47175;-78
2021/08/30 10:32:52;;;;;;;;;12.00;9.00;;;;;;;;5079146;28;47038;-78
2021/08/30 10:35:19;;;;;;;;;11.25;8.75;;;;;;;;5079400;28;47182;-78
2021/08/30 10:38:03;;;;;;;;;9.75;9.75;;;;;;;;5079185;28;46967;-78
2021/08/30 10:40:30;;;;;;;;;9.50;8.75;;;;;;;;5079072;28;46866;-78
2021/08/30 10:43:00;;;;;;;;;12.00;10.00;;;;;;;;5060740;28;47085;-78
2021/08/30 10:45:29;;;;;;;;;13.00;13.00;;;;;;;;5079111;28;47029;-78
2021/08/30 10:47:58;;;;;;;;;11.25;9.25;;;;;;;;5079046;28;47247;-78
2021/08/30 10:50:25;;;;;;;;;14.75;11.50;;;;;;;;5078998;28;46792;-78
2021/08/30 10:53:01;;;;;;;;;13.50;12.75;;;;;;;;5078937;28;46849;-78
2021/08/30 10:55:34;;;;;;;;;11.25;10.00;;;;;;;;5079350;28;46976;-78
2021/08/30 10:58:08;;;;;;;;;10.25;9.25;;;;;;;;5060078;28;48585;-78
2021/08/30 11:00:34;;;;;;;;;11.75;9.50;;;;;;;;5078500;28;47028;-78
2021/08/30 11:03:00;;;;;;;;;12.00;9.75;;;;;;;;5078812;28;46862;-78
2021/08/30 11:05:27;;;;;;;;;13.50;10.00;;;;;;;;5079245;28;46821;-78
2021/08/30 11:07:52;;;;;;;;;9.25;8.25;;;;;;;;5078574;28;47198;-78
2021/08/30 11:10:19;;;;;;;;;9.50;7.50;;;;;;;;5079011;28;47101;-78
2021/08/30 11:12:45;;;;;;;;;8.00;6.00;;;;;;;;5078861;28;46928;-78
2021/08/30 11:15:11;;;;;;;;;10.50;8.25;;;;;;;;5078761;28;47023;-78
2021/08/30 11:17:36;;;;;;;;;10.75;9.75;;;;;;;;5078380;28;47044;-77
2021/08/30 11:20:03;;;;;;;;;10.50;10.50;;;;;;;;5078490;28;46838;-78
2021/08/30 11:22:28;;;;;;;;;10.50;9.50;;;;;;;;5060029;28;46878;-78
2021/08/30 11:24:54;;;;;;;;;15.50;11.00;;;;;;;;5078829;28;47343;-77
2021/08/30 11:27:26;;;;;;;;;9.00;9.00;;;;;;;;5064730;28;46926;-78
2021/08/30 11:29:55;;;;;;;;;9.50;9.00;;;;;;;;5078204;28;47105;-78
2021/08/30 11:32:22;;;;;;;;;11.25;8.75;;;;;;;;5077493;28;47010;-77
2021/08/30 11:34:47;;;;;;;;;10.00;8.25;;;;;;;;5078389;28;47170;-77
2021/08/30 11:37:17;;;;;;;;;8.00;8.00;;;;;;;;5078164;28;47827;-77
2021/08/30 11:39:43;;;;;;;;;8.75;7.50;;;;;;;;5078476;28;46848;-77
2021/08/30 11:42:11;;;;;;;;;12.00;8.00;;;;;;;;5078285;28;46891;-77
2021/08/30 11:44:37;;;;;;;;;12.25;9.25;;;;;;;;5077975;28;46846;-77
2021/08/30 11:47:04;;;;;;;;;15.00;11.75;;;;;;;;5078183;28;46997;-77
2021/08/30 11:49:31;;;;;;;;;9.25;9.25;;;;;;;;5078177;28;47210;-77
2021/08/30 11:51:58;;;;;;;;;8.75;8.75;;;;;;;;5059833;28;47030;-77
2021/08/30 11:54:26;;;;;;;;;12.50;11.00;;;;;;;;5078321;28;47073;-77
2021/08/30 11:56:56;;;;;;;;;13.25;9.00;;;;;;;;5077948;28;46990;-78
2021/08/30 11:59:25;;;;;;;;;12.50;9.00;;;;;;;;5077438;28;47070;-77
2021/08/30 12:01:51;;;;;;;;;10.25;9.50;;;;;;;;5078149;28;46907;-77
2021/08/30 12:04:17;;;;;;;;;11.25;9.25;;;;;;;;5078106;28;46792;-78
2021/08/30 12:06:49;;;;;;;;;11.50;10.00;;;;;;;;5077954;28;48103;-77
2021/08/30 12:09:14;;;;;;;;;11.00;10.75;;;;;;;;5077852;28;46903;-77
2021/08/30 12:11:50;;;;;;;;;11.00;7.00;;;;;;;;5078073;28;46892;-77
2021/08/30 12:14:16;;;;;;;;;12.00;9.50;;;;;;;;5077625;28;47078;-78
2021/08/30 12:16:42;;;;;;;;;12.75;10.00;;;;;;;;5077873;28;46827;-78
2021/08/30 12:19:09;;;;;;;;;12.75;10.75;;;;;;;;5077402;28;47001;-78
2021/08/30 12:21:37;;;;;;;;;11.25;10.50;;;;;;;;5077787;28;47010;-77
2021/08/30 12:24:02;;;;;;;;;10.25;9.50;;;;;;;;5077833;28;47168;-77
2021/08/30 12:26:28;;;;;;;;;8.75;8.75;;;;;;;;5066883;28;46832;-78
2021/08/30 12:28:55;;;;;;;;;9.75;9.75;;;;;;;;5074572;28;47025;-77
2021/08/30 12:31:29;;;;;;;;;12.00;11.00;;;;;;;;5077682;28;47033;-77
2021/08/30 12:34:05;;;;;;;;;10.00;9.00;;;;;;;;5077706;28;46811;-77
2021/08/30 12:36:30;;;;;;;;;12.50;9.50;;;;;;;;5077426;28;46978;-78
2021/08/30 12:38:56;;;;;;;;;11.25;9.25;;;;;;;;5077565;28;46943;-78
2021/08/30 12:41:21;;;;;;;;;11.75;11.00;;;;;;;;5077640;28;46871;-78
2021/08/30 12:43:48;;;;;;;;;8.75;8.00;;;;;;;;5078700;28;46762;-78
2021/08/30 12:46:13;;;;;;;;;12.25;11.00;;;;;;;;5062579;28;47134;-78
2021/08/30 12:48:39;;;;;;;;;14.00;10.50;;;;;;;;5062478;28;47113;-78
2021/08/30 12:51:04;;;;;;;;;13.25;11.00;;;;;;;;5080988;28;46911;-77
2021/08/30 12:53:30;;;;;;;;;12.50;11.50;;;;;;;;5080987;28;46845;-77
2021/08/30 12:55:55;;;;;;;;;13.00;12.00;;;;;;;;5062524;28;47134;-78
2021/08/30 12:58:20;;;;;;;;;12.00;11.25;;;;;;;;5080379;28;47052;-78
2021/08/30 13:00:46;;;;;;;;;13.50;10.00;;;;;;;;5080795;28;47064;-77
2021/08/30 13:03:11;;;;;;;;;13.25;11.00;;;;;;;;5080826;28;47308;-77
2021/08/30 13:05:39;;;;;;;;;13.75;11.25;;;;;;;;5080757;28;47161;-77
2021/08/30 13:08:05;;;;;;;;;12.75;11.00;;;;;;;;5080585;28;46700;-77
2021/08/30 13:10:34;;;;;;;;;14.50;13.00;;;;;;;;5080684;28;46930;-77
2021/08/30 13:12:59;;;;;;;;;12.50;11.50;;;;;;;;5080670;28;47000;-77
2021/08/30 13:15:25;;;;;;;;;12.00;11.25;;;;;;;;5080208;28;47155;-78
2021/08/30 13:17:50;;;;;;;;;17.25;12.75;;;;;;;;5080396;28;47095;-77
2021/08/30 13:20:16;;;;;;;;;13.00;10.00;;;;;;;;5080524;28;47036;-77
2021/08/30 13:22:42;;;;;;;;;12.25;11.75;;;;;;;;5080470;28;47148;-77
2021/08/30 13:25:12;;;;;;;;;14.25;10.75;;;;;;;;5080149;28;47041;-77
2021/08/30 13:27:37;;;;;;;;;12.25;10.50;;;;;;;;5067365;28;47057;-77
2021/08/30 13:30:03;;;;;;;;;11.50;11.50;;;;;;;;5079966;28;47032;-77
2021/08/30 13:32:29;;;;;;;;;12.50;12.50;;;;;;;;5080558;28;46966;-78
2021/08/30 13:34:54;;;;;;;;;14.50;11.75;;;;;;;;5080215;28;48044;-77
2021/08/30 13:37:20;;;;;;;;;11.00;9.25;;;;;;;;5080187;28;46915;-78
2021/08/30 13:39:45;;;;;;;;;9.25;9.00;;;;;;;;5080116;28;47030;-77
2021/08/30 13:42:10;;;;;;;;;12.25;11.25;;;;;;;;5080413;28;46987;-77
2021/08/30 13:44:36;;;;;;;;;9.50;8.50;;;;;;;;5061395;28;48543;-77
2021/08/30 13:47:01;;;;;;;;;9.25;9.00;;;;;;;;5079992;28;46984;-77
2021/08/30 13:49:26;;;;;;;;;13.25;9.25;;;;;;;;5080242;28;46975;-78
2021/08/30 13:51:52;;;;;;;;;13.00;11.25;;;;;;;;5080215;28;46884;-77
2021/08/30 13:54:17;;;;;;;;;11.50;10.00;;;;;;;;5079991;28;47981;-78
2021/08/30 13:56:42;;;;;;;;;12.25;10.75;;;;;;;;5060672;28;46887;-77
2021/08/30 13:59:08;;;;;;;;;12.00;10.00;;;;;;;;5079596;28;46794;-78
2021/08/30 14:01:33;;;;;;;;;10.25;9.50;;;;;;;;5079749;28;47280;-77
2021/08/30 14:03:58;;;;;;;;;17.00;13.50;;;;;;;;5079810;28;47949;-77
2021/08/30 14:06:24;;;;;;;;;9.75;9.25;;;;;;;;5079548;28;46755;-77
2021/08/30 14:08:49;;;;;;;;;9.25;4.75;;;;;;;;5079736;28;46803;-78
2021/08/30 14:11:14;;;;;;;;;11.75;10.75;;;;;;;;5079847;28;47130;-78
2021/08/30 14:13:40;;;;;;;;;12.25;11.75;;;;;;;;5079105;28;47007;-78
2021/08/30 14:16:05;;;;;;;;;14.00;11.75;;;;;;;;5079354;28;46895;-78
2021/08/30 14:18:31;;;;;;;;;10.50;10.50;;;;;;;;5079582;28;46826;-77
2021/08/30 14:20:56;;;;;;;;;12.50;11.50;;;;;;;;5079485;28;46748;-78
2021/08/30 14:23:21;;;;;;;;;13.25;11.25;;;;;;;;5079540;28;47048;-77